Time;durP1;ratioP1;P1;durP2;ratioP2;P2;SDS_P1;SDS_P2;PMS_P1;PMS_P2;Temp;Humidity;BMP_temperature;BMP_pressure;BME280_temperature;BME280_humidity;BME280_pressure;Samples;Min_cycle;Max_cycle;Signal;HPM_P1;HPM_P2
2021/01/01 00:00:20;;;;;;;93.43;37.77;;;;;;;-1.13;82.78;99993.13;4873862;58;1139024;-89
2021/01/01 00:05:28;;;;;;;79.17;36.13;;;;;;;-1.15;83.18;99989.74;4925355;59;1138463;-89
2021/01/01 00:10:34;;;;;;;99.83;42.37;;;;;;;-1.21;83.83;99993.41;4912365;59;1138545;-89
2021/01/01 00:15:40;;;;;;;192.93;75.23;;;;;;;-1.18;82.87;99996.34;4953628;59;1138290;-89
2021/01/01 00:20:45;;;;;;;101.43;41.90;;;;;;;-1.19;82.76;99996.79;5055016;56;1140455;-89
2021/01/01 00:25:51;;;;;;;87.87;40.47;;;;;;;-1.21;83.15;100006.83;5135323;56;1140472;-89
2021/01/01 00:30:56;;;;;;;85.73;34.67;;;;;;;-1.20;82.71;100008.07;5147964;56;1140507;-89
2021/01/01 00:36:04;;;;;;;81.47;33.50;;;;;;;-1.24;83.24;99994.84;5134809;55;1140528;-89
2021/01/01 00:41:10;;;;;;;86.33;36.37;;;;;;;-1.33;83.18;100004.25;5151799;56;1138291;-89
2021/01/01 00:46:15;;;;;;;77.12;31.57;;;;;;;-1.33;83.18;100004.25;5206138;54;1140819;-89
2021/01/01 00:51:29;;;;;;;90.00;35.23;;;;;;;-1.40;83.43;99995.47;5307771;54;1140392;-89
2021/01/01 00:56:34;;;;;;;86.07;36.83;;;;;;;-1.39;83.13;100013.58;5326644;54;1138243;-89
2021/01/01 01:01:40;;;;;;;91.53;41.33;;;;;;;-1.31;82.96;100002.90;5269958;54;1140644;-89
2021/01/01 01:06:46;;;;;;;84.57;34.60;;;;;;;-1.19;82.87;100011.52;5265177;55;1140798;-89
2021/01/01 01:11:51;;;;;;;80.63;36.10;;;;;;;-1.14;82.79;100013.49;5249809;55;1140774;-89
2021/01/01 01:16:57;;;;;;;80.23;32.73;;;;;;;-1.15;82.53;100016.98;5268704;55;1140338;-88
2021/01/01 01:22:02;;;;;;;78.40;33.23;;;;;;;-1.20;82.46;100005.92;5281416;55;1141377;-88
2021/01/01 01:27:08;;;;;;;79.30;33.80;;;;;;;-1.27;82.48;100005.33;5316487;54;1140487;-89
2021/01/01 01:32:13;;;;;;;82.50;34.53;;;;;;;-1.27;82.48;100005.33;5275095;55;1140669;-88
2021/01/01 01:37:19;;;;;;;78.70;31.73;;;;;;;-1.26;82.43;100009.62;5277985;55;1140889;-89
2021/01/01 01:42:24;;;;;;;60.93;26.57;;;;;;;-1.34;82.24;100007.74;5275051;55;1140390;-89
2021/01/01 01:47:30;;;;;;;72.97;30.57;;;;;;;-1.35;82.45;100009.94;5295788;55;1140312;-89
2021/01/01 01:52:37;;;;;;;60.40;25.40;;;;;;;-1.36;82.36;100016.03;5281388;55;1140570;-89
2021/01/01 01:57:44;;;;;;;72.03;31.73;;;;;;;-1.40;82.93;100014.47;5297779;55;1140829;-89
2021/01/01 02:02:50;;;;;;;72.87;28.90;;;;;;;-1.44;82.62;100014.19;5324131;55;1140466;-90
2021/01/01 02:07:56;;;;;;;80.10;30.67;;;;;;;-1.49;83.32;100016.09;5254181;54;1140343;-89
2021/01/01 02:13:03;;;;;;;75.50;30.67;;;;;;;-1.50;82.72;100008.76;5344985;55;1138369;-89
2021/01/01 02:18:09;;;;;;;62.78;27.02;;;;;;;-1.58;82.99;100012.55;5255169;55;1140619;-89
2021/01/01 02:23:14;;;;;;;66.87;30.32;;;;;;;-1.61;83.67;100021.27;5272315;55;1140493;-90
2021/01/01 02:28:20;;;;;;;56.65;22.30;;;;;;;-1.57;83.29;100020.27;5247328;55;1140422;-89
2021/01/01 02:33:26;;;;;;;72.40;28.83;;;;;;;-1.52;83.20;100023.97;5258447;55;1140306;-89
2021/01/01 02:38:31;;;;;;;70.77;27.07;;;;;;;-1.52;83.16;100025.27;5283756;55;1140308;-90
2021/01/01 02:43:36;;;;;;;68.37;28.37;;;;;;;-1.52;83.20;100022.23;5257786;55;1140334;-90
2021/01/01 02:48:42;;;;;;;68.87;31.07;;;;;;;-1.55;83.05;100016.33;5293625;55;1140627;-89
2021/01/01 02:53:48;;;;;;;74.53;28.17;;;;;;;-1.56;83.30;100011.59;5258488;55;1140389;-90
2021/01/01 02:58:53;;;;;;;84.80;33.47;;;;;;;-1.55;83.62;100012.44;5332131;55;1136240;-90
2021/01/01 03:03:59;;;;;;;87.60;32.60;;;;;;;-1.54;83.35;100006.35;5272960;55;1140570;-89
2021/01/01 03:09:06;;;;;;;72.30;29.47;;;;;;;-1.52;83.47;100005.38;5276403;55;1140483;-89
2021/01/01 03:14:11;;;;;;;93.85;47.17;;;;;;;-1.53;84.04;100006.27;5265571;54;1140572;-90
2021/01/01 03:19:17;;;;;;;71.57;29.23;;;;;;;-1.56;83.88;100000.37;5239231;55;1140421;-89
2021/01/01 03:24:22;;;;;;;74.87;30.57;;;;;;;-1.55;83.86;100000.32;5269561;55;1140720;-89
2021/01/01 03:29:28;;;;;;;62.33;25.07;;;;;;;-1.59;84.07;100003.92;5255493;55;1140660;-89
2021/01/01 03:34:33;;;;;;;60.10;24.57;;;;;;;-1.63;84.23;100003.63;5261427;55;1140357;-90
2021/01/01 03:39:39;;;;;;;68.23;28.90;;;;;;;-1.62;84.08;100000.13;5273490;55;1140271;-90
2021/01/01 03:44:45;;;;;;;67.03;26.97;;;;;;;-1.63;83.97;100001.03;5294340;55;1140371;-89
2021/01/01 03:49:50;;;;;;;59.13;24.23;;;;;;;-1.65;83.95;99995.05;5244937;55;1140692;-89
2021/01/01 03:54:56;;;;;;;59.57;23.20;;;;;;;-1.64;84.29;99995.45;5249864;55;1138682;-90
2021/01/01 04:00:04;;;;;;;52.67;23.17;;;;;;;-1.74;84.50;99990.66;5260281;55;1138905;-89
2021/01/01 04:05:11;;;;;;;61.45;26.02;;;;;;;-1.82;84.83;99986.58;5259201;55;1138233;-89
2021/01/01 04:10:17;;;;;;;59.23;23.40;;;;;;;-1.83;84.58;99970.63;5272638;55;1148307;-89
2021/01/01 04:15:23;;;;;;;35.33;11.67;;;;;;;-1.84;84.53;99974.16;5277758;55;1138462;-89
2021/01/01 04:20:28;;;;;;;54.67;25.03;;;;;;;-1.87;85.18;99970.82;5273506;55;1138399;-89
2021/01/01 04:25:34;;;;;;;61.63;25.10;;;;;;;-1.83;84.41;99983.59;5283264;55;1138264;-88
2021/01/01 04:30:39;;;;;;;61.60;26.53;;;;;;;-1.80;84.79;99983.94;5281091;55;1138439;-89
2021/01/01 04:35:45;;;;;;;43.07;18.87;;;;;;;-1.77;84.51;99987.27;5271875;55;1138470;-89
2021/01/01 04:40:53;;;;;;;35.80;13.80;;;;;;;-1.75;84.77;99990.27;5278029;55;1138850;-89
2021/01/01 04:45:58;;;;;;;41.80;18.57;;;;;;;-1.85;84.90;99986.72;5305107;55;1138634;-89
2021/01/01 04:51:05;;;;;;;57.23;24.20;;;;;;;-1.86;84.73;99989.36;5281517;55;1139105;-90
2021/01/01 04:56:11;;;;;;;49.65;20.57;;;;;;;-1.90;84.71;99995.54;5303726;55;1138179;-89
2021/01/01 05:01:17;;;;;;;53.67;22.60;;;;;;;-1.94;85.00;100000.42;5277312;55;1138789;-89
2021/01/01 05:06:30;;;;;;;53.87;25.05;;;;;;;-1.92;85.07;100006.41;5278211;55;1140402;-89
2021/01/01 05:11:36;;;;;;;48.50;23.27;;;;;;;-1.87;85.13;99998.88;5273286;55;1140380;-89
2021/01/01 05:16:47;;;;;;;58.43;24.80;;;;;;;-1.84;84.81;100003.11;5280459;55;1138554;-89
2021/01/01 05:22:03;;;;;;;60.90;24.23;;;;;;;-1.85;84.59;100010.48;5278924;55;1140337;-89
2021/01/01 05:27:16;;;;;;;50.20;21.70;;;;;;;-1.85;84.72;99999.67;5279710;55;1140401;-89
2021/01/01 05:32:30;;;;;;;59.23;24.23;;;;;;;-1.88;84.80;100008.00;5299526;55;1138425;-89
2021/01/01 05:37:36;;;;;;;52.20;20.47;;;;;;;-1.86;85.07;100006.20;5278221;55;1140744;-88
2021/01/01 05:42:42;;;;;;;56.40;25.50;;;;;;;-1.85;84.79;100006.16;5295265;55;1140386;-89
2021/01/01 05:48:08;;;;;;;50.77;20.77;;;;;;;-1.83;84.74;100006.92;5284017;54;1140439;-89
2021/01/01 05:53:19;;;;;;;59.30;25.67;;;;;;;-1.84;85.04;100008.30;5383838;55;21504;-88
2021/01/01 05:58:26;;;;;;;56.10;24.10;;;;;;;-1.85;84.80;100008.75;5268492;55;1136660;-88
2021/01/01 06:03:33;;;;;;;54.93;23.15;;;;;;;-1.88;85.24;100000.23;5303311;55;1140262;-89
2021/01/01 06:08:40;;;;;;;59.20;25.47;;;;;;;-1.86;85.18;100007.50;5295413;54;1140450;-88
2021/01/01 06:13:50;;;;;;;48.80;21.47;;;;;;;-1.87;84.91;100001.92;5280678;55;1140472;-88
2021/01/01 06:18:58;;;;;;;59.17;24.27;;;;;;;-1.91;85.26;100003.77;5300821;55;1140263;-88
2021/01/01 06:24:06;;;;;;;46.83;18.80;;;;;;;-1.87;84.88;100011.84;5277697;55;1140274;-88
2021/01/01 06:29:16;;;;;;;61.57;24.80;;;;;;;-1.81;84.97;100005.12;5301218;55;1140799;-88
2021/01/01 06:34:30;;;;;;;47.53;22.37;;;;;;;-1.78;84.63;100008.91;5281189;55;1140490;-88
2021/01/01 06:39:45;;;;;;;43.53;19.53;;;;;;;-1.78;84.55;100017.98;5278944;55;1140457;-88
2021/01/01 06:44:51;;;;;;;57.27;22.40;;;;;;;-1.80;84.73;100015.04;5282052;55;1140923;-88
2021/01/01 06:49:56;;;;;;;59.93;23.43;;;;;;;-1.81;84.50;100021.13;5281839;54;1141237;-88
2021/01/01 06:55:03;;;;;;;53.07;23.10;;;;;;;-1.79;84.84;100014.98;5272340;55;1140588;-88
2021/01/01 07:00:12;;;;;;;47.90;20.73;;;;;;;-1.81;84.30;100023.72;5282767;55;1140512;-88
2021/01/01 07:05:22;;;;;;;57.03;21.00;;;;;;;-1.85;84.93;100024.75;5279633;55;1140712;-88
2021/01/01 07:10:37;;;;;;;41.37;18.07;;;;;;;-1.86;84.76;100022.60;5218455;55;1140528;-88
2021/01/01 07:15:42;;;;;;;48.87;20.40;;;;;;;-1.89;85.08;100023.16;5170456;56;1140601;-88
2021/01/01 07:20:48;;;;;;;55.43;23.67;;;;;;;-1.91;85.14;100023.20;5014619;57;1140312;-88
2021/01/01 07:25:53;;;;;;;51.40;21.27;;;;;;;-1.88;85.03;100021.80;5036678;57;1140407;-87
2021/01/01 07:31:00;;;;;;;63.70;26.00;;;;;;;-1.83;84.91;100013.39;5014275;57;1140567;-88
2021/01/01 07:36:09;;;;;;;52.80;19.57;;;;;;;-1.83;84.91;100013.39;5053618;57;1140329;-88
2021/01/01 07:41:18;;;;;;;63.63;26.83;;;;;;;-1.79;85.17;100020.63;5015538;57;1140781;-88
2021/01/01 07:46:24;;;;;;;54.87;23.00;;;;;;;-1.78;84.94;100017.98;5052299;57;1141271;-89
2021/01/01 07:51:30;;;;;;;51.17;21.53;;;;;;;-1.71;85.43;100013.89;5180476;55;1140285;-91
2021/01/01 07:56:35;;;;;;;50.23;20.20;;;;;;;-1.72;84.94;100016.93;5179890;56;1140356;-91
2021/01/01 08:01:41;;;;;;;52.80;21.42;;;;;;;-1.75;85.64;100013.59;5013223;58;1140371;-91
2021/01/01 08:06:47;;;;;;;59.00;24.65;;;;;;;-1.74;85.28;100020.02;5015247;57;1140519;-90
2021/01/01 08:12:06;;;;;;;53.95;21.10;;;;;;;-1.73;85.26;100023.02;5062533;56;1140574;-92
2021/01/01 08:17:29;;;;;;;70.28;26.48;;;;;;;-1.70;85.34;100027.25;5089351;57;1140783;-92
2021/01/01 08:22:37;;;;;;;62.10;26.87;;;;;;;-1.67;85.46;100019.34;5130353;56;1140428;-91
2021/01/01 08:27:53;;;;;;;60.40;25.10;;;;;;;-1.61;85.42;100013.95;5097532;56;1140537;-91
2021/01/01 08:33:00;;;;;;;64.67;26.77;;;;;;;-1.58;85.34;100017.73;5152622;57;1138306;-91
2021/01/01 08:38:21;;;;;;;57.17;24.97;;;;;;;-1.53;85.61;100015.83;5147073;56;1140710;-92
2021/01/01 08:43:29;;;;;;;69.17;27.40;;;;;;;-1.48;85.30;100032.05;5095880;57;1140782;-90
2021/01/01 08:48:35;;;;;;;62.20;24.43;;;;;;;-1.51;85.24;100021.78;5118771;57;1140403;-91
2021/01/01 08:53:42;;;;;;;56.63;21.77;;;;;;;-1.54;85.14;100021.91;5090830;56;1140413;-90
2021/01/01 08:58:47;;;;;;;42.93;16.27;;;;;;;-1.59;85.42;100029.00;5086256;57;1140701;-92
2021/01/01 09:04:03;;;;;;;54.00;21.57;;;;;;;-1.58;85.24;100037.17;5107623;57;1140284;-90
2021/01/01 09:09:10;;;;;;;58.50;23.93;;;;;;;-1.58;85.32;100038.02;5057692;57;1140426;-89
2021/01/01 09:14:16;;;;;;;59.77;25.37;;;;;;;-1.58;85.84;100035.88;5093648;56;1140789;-91
2021/01/01 09:19:21;;;;;;;78.05;29.50;;;;;;;-1.51;85.71;100041.23;5099550;56;1140436;-91
2021/01/01 09:24:27;;;;;;;64.82;24.85;;;;;;;-1.47;85.44;100051.44;5056977;57;1140578;-91
2021/01/01 09:29:33;;;;;;;54.07;22.10;;;;;;;-1.42;85.30;100049.54;5106601;57;1140509;-91
2021/01/01 09:34:38;;;;;;;52.27;22.53;;;;;;;-1.37;85.17;100049.80;5136383;56;1140439;-91
2021/01/01 09:39:44;;;;;;;38.17;16.50;;;;;;;-1.34;84.97;100057.48;5096588;57;1140756;-90
2021/01/01 09:44:50;;;;;;;67.50;28.73;;;;;;;-1.34;85.12;100061.37;5085102;57;1140397;-91
2021/01/01 09:49:55;;;;;;;52.23;23.63;;;;;;;-1.34;85.24;100057.03;5075729;57;1140642;-91
2021/01/01 09:55:01;;;;;;;61.73;26.57;;;;;;;-1.30;85.34;100046.94;5156539;57;1138806;-91
2021/01/01 10:00:16;;;;;;;58.20;25.50;;;;;;;-1.24;85.22;100053.67;5094603;57;1140517;-91
2021/01/01 10:05:21;;;;;;;107.97;44.53;;;;;;;-1.19;85.07;100052.58;5102586;57;1140449;-91
2021/01/01 10:10:29;;;;;;;56.90;24.12;;;;;;;-1.19;84.94;100055.62;5088224;57;1142494;-91
2021/01/01 10:15:34;;;;;;;121.28;54.45;;;;;;;-1.20;85.15;100051.33;5084928;56;1140396;-91
2021/01/01 10:20:40;;;;;;;58.00;23.57;;;;;;;-1.15;85.31;100050.27;5125335;56;1142432;-89
2021/01/01 10:25:45;;;;;;;76.30;29.20;;;;;;;-1.22;85.03;100044.90;5076009;57;1140747;-90
2021/01/01 10:30:51;;;;;;;20.30;8.50;;;;;;;-1.26;84.78;100042.05;5155024;57;1140510;-90
2021/01/01 10:35:57;;;;;;;80.07;30.90;;;;;;;-1.26;84.92;100054.17;5115809;57;21142;-91
2021/01/01 10:41:02;;;;;;;57.13;22.53;;;;;;;-1.26;84.88;100051.13;5174053;57;21472;-91
2021/01/01 10:46:08;;;;;;;72.90;32.07;;;;;;;-1.26;84.48;100058.91;5197278;57;21080;-90
2021/01/01 10:51:26;;;;;;;60.13;24.67;;;;;;;-1.27;84.54;100065.00;5055004;57;1136315;-90
2021/01/01 10:56:33;;;;;;;62.87;25.40;;;;;;;-1.22;84.64;100062.24;5161241;57;1140391;-91
2021/01/01 11:01:38;;;;;;;78.37;24.03;;;;;;;-1.18;84.45;100056.86;5123029;56;1140491;-90
2021/01/01 11:06:45;;;;;;;65.67;25.93;;;;;;;-1.15;84.37;100060.64;5203838;56;1138585;-92
2021/01/01 11:11:52;;;;;;;148.93;67.83;;;;;;;-1.14;84.41;100057.60;5224109;56;21433;-91
2021/01/01 12:22:22;;;;;;;78.77;31.00;;;;;;;-0.94;84.31;100036.95;5146419;56;1140566;-90
2021/01/01 12:27:25;;;;;;;92.60;35.10;;;;;;;-0.95;84.21;100031.81;5086940;56;1140446;-92
2021/01/01 12:32:30;;;;;;;109.43;42.10;;;;;;;-1.00;84.17;100034.57;5115638;56;1140573;-89
2021/01/01 12:37:38;;;;;;;97.13;37.33;;;;;;;-1.00;84.16;100033.73;5113619;56;1142364;-89
2021/01/01 12:42:43;;;;;;;122.87;40.57;;;;;;;-1.00;84.10;100031.13;5102566;57;1140337;-91
2021/01/01 12:47:51;;;;;;;107.37;42.87;;;;;;;-1.00;83.91;100038.91;5114114;56;1142711;-90
2021/01/01 12:53:00;;;;;;;112.87;45.27;;;;;;;-0.99;84.13;100038.02;5174174;57;1140657;-91
2021/01/01 12:58:05;;;;;;;132.40;52.83;;;;;;;-0.92;84.29;100035.59;5215764;56;21139;-90
2021/01/01 13:03:11;;;;;;;110.13;39.20;;;;;;;-0.85;84.35;100031.84;5216510;56;21151;-90
2021/01/01 13:08:16;;;;;;;132.13;51.37;;;;;;;-0.84;84.09;100028.34;5213976;56;21127;-90
2021/01/01 13:13:22;;;;;;;138.37;54.40;;;;;;;-0.88;84.24;100038.44;5213461;57;21293;-89
2021/01/01 13:18:28;;;;;;;100.22;40.38;;;;;;;-0.91;84.09;100043.30;5098639;56;1139368;-90
2021/01/01 13:23:40;;;;;;;112.20;43.23;;;;;;;-0.86;84.13;100040.53;5105886;56;1142440;-90
2021/01/01 13:28:45;;;;;;;118.33;44.90;;;;;;;-0.84;84.15;100040.02;5114421;57;1142427;-90
2021/01/01 13:33:52;;;;;;;111.33;41.23;;;;;;;-0.82;84.05;100046.85;5111162;57;1142533;-89
2021/01/01 13:38:57;;;;;;;114.43;45.10;;;;;;;-0.81;84.11;100047.25;5116404;57;1142409;-90
2021/01/01 13:44:03;;;;;;;113.10;44.47;;;;;;;-0.79;83.95;100049.79;5196924;57;1140455;-90
2021/01/01 13:49:09;;;;;;;113.63;46.40;;;;;;;-0.74;84.02;100048.69;5157028;57;1142534;-90
2021/01/01 13:54:15;;;;;;;144.27;57.87;;;;;;;-0.70;84.08;100042.92;5116633;56;1142413;-89
2021/01/01 13:59:21;;;;;;;166.10;70.03;;;;;;;-0.68;83.94;100053.26;5216220;57;21148;-89
2021/01/01 14:04:26;;;;;;;68.37;25.92;;;;;;;-0.68;84.04;100058.45;5154624;56;1138340;-91
2021/01/01 14:09:32;;;;;;;138.40;55.43;;;;;;;-0.65;83.75;100051.84;5092728;57;1140466;-89
2021/01/01 14:14:37;;;;;;;125.87;53.20;;;;;;;-0.65;83.88;100063.08;5121679;57;1140437;-90
2021/01/01 14:19:43;;;;;;;129.53;52.07;;;;;;;-0.62;83.89;100052.58;5087576;56;1142464;-89
2021/01/01 14:24:48;;;;;;;98.17;40.07;;;;;;;-0.62;83.61;100056.47;5079514;56;1142592;-89
2021/01/01 14:29:54;;;;;;;117.27;43.50;;;;;;;-0.67;83.44;100066.63;5137754;57;1138372;-91
2021/01/01 14:34:59;;;;;;;106.77;42.93;;;;;;;-0.70;83.51;100080.58;5054300;57;1142600;-90
2021/01/01 14:40:06;;;;;;;104.93;41.70;;;;;;;-0.69;83.65;100078.38;5111785;57;1142420;-91
2021/01/01 14:45:13;;;;;;;116.93;48.27;;;;;;;-0.76;83.39;100085.54;5195854;56;1138433;-90
2021/01/01 14:50:20;;;;;;;123.70;50.27;;;;;;;-0.72;83.47;100085.83;5198586;57;21139;-91
2021/01/01 14:55:26;;;;;;;301.07;101.20;;;;;;;-0.68;83.68;100076.62;5216226;56;21072;-90
2021/01/01 15:00:32;;;;;;;347.07;123.80;;;;;;;-0.63;83.76;100082.50;5134583;57;1140521;-88
2021/01/01 15:05:37;;;;;;;145.80;61.67;;;;;;;-0.57;83.73;100093.92;5114802;56;1145137;-88
2021/01/01 15:10:43;;;;;;;113.17;47.67;;;;;;;-0.58;83.57;100089.19;5125024;57;1142470;-88
2021/01/01 15:15:49;;;;;;;160.13;63.80;;;;;;;-0.53;83.55;100082.52;5088279;57;1143028;-88
2021/01/01 15:20:55;;;;;;;163.93;69.03;;;;;;;-0.52;83.59;100087.66;5074427;57;1142509;-89
2021/01/01 15:26:01;;;;;;;170.67;69.73;;;;;;;-0.53;83.37;100085.12;5060443;56;1142447;-88
2021/01/01 15:31:06;;;;;;;133.43;52.13;;;;;;;-0.53;83.51;100087.27;5087323;56;1142521;-88
2021/01/01 15:36:16;;;;;;;137.70;57.87;;;;;;;-0.53;83.51;100087.27;5089455;56;1142470;-89
2021/01/01 15:41:22;;;;;;;165.75;67.65;;;;;;;-0.62;83.25;100082.44;5111349;56;1142740;-87
2021/01/01 15:46:27;;;;;;;120.20;48.13;;;;;;;-0.55;83.17;100096.86;5087020;56;1142723;-88
2021/01/01 15:51:33;;;;;;;120.02;50.73;;;;;;;-0.57;83.31;100097.83;5109423;56;1142770;-88
2021/01/01 15:56:39;;;;;;;86.97;31.30;;;;;;;-0.54;83.49;100098.56;5087228;56;1142430;-88
2021/01/01 16:01:45;;;;;;;115.93;41.30;;;;;;;-0.54;83.29;100097.71;5107007;56;1140802;-89
2021/01/01 16:06:51;;;;;;;130.20;53.93;;;;;;;-0.59;83.25;100093.14;5091139;56;1142728;-89
2021/01/01 16:11:58;;;;;;;101.57;41.07;;;;;;;-0.59;83.27;100087.94;5083338;56;1142542;-90
2021/01/01 16:17:04;;;;;;;163.07;61.50;;;;;;;-0.63;83.32;100096.33;5086182;57;1142381;-90
2021/01/01 16:22:09;;;;;;;127.32;51.88;;;;;;;-0.62;83.42;100098.47;5072424;57;1142506;-89
2021/01/01 16:27:15;;;;;;;182.87;86.37;;;;;;;-0.60;83.47;100100.53;5090350;56;1142495;-88
2021/01/01 16:32:21;;;;;;;166.93;63.63;;;;;;;-0.59;83.40;100095.73;5117496;56;1143168;-88
2021/01/01 16:37:26;;;;;;;144.47;56.00;;;;;;;-0.56;83.51;100104.71;5076693;56;1142543;-89
2021/01/01 16:42:32;;;;;;;188.90;77.12;;;;;;;-0.56;83.45;100095.63;5084831;57;1142404;-88
2021/01/01 16:47:46;;;;;;;172.60;68.13;;;;;;;-0.52;83.44;100098.50;5083728;56;1142784;-88
2021/01/01 16:52:52;;;;;;;231.63;79.80;;;;;;;-0.51;83.40;100106.69;5088946;57;1142500;-88
2021/01/01 16:57:58;;;;;;;231.77;94.10;;;;;;;-0.52;83.44;100110.19;5094329;57;1142384;-88
2021/01/01 17:03:04;;;;;;;182.70;81.27;;;;;;;-0.56;83.48;100119.84;5091702;56;1142498;-87
2021/01/01 17:08:09;;;;;;;154.57;59.50;;;;;;;-0.52;83.52;100118.83;5072339;56;1142515;-88
2021/01/01 17:13:17;;;;;;;330.83;113.73;;;;;;;-0.49;83.50;100123.06;5073917;56;1142391;-89
2021/01/01 17:18:22;;;;;;;169.23;64.87;;;;;;;-0.49;83.36;100116.57;5089110;57;1145039;-88
2021/01/01 17:23:28;;;;;;;159.72;68.07;;;;;;;-0.53;83.39;100110.64;5100068;56;1142541;-88
2021/01/01 17:28:34;;;;;;;176.17;67.93;;;;;;;-0.50;83.56;100119.63;5047867;56;1142425;-88
2021/01/01 17:33:39;;;;;;;157.50;63.87;;;;;;;-0.45;83.47;100127.21;5076894;57;1142378;-88
2021/01/01 17:38:47;;;;;;;163.80;61.00;;;;;;;-0.43;83.65;100126.70;5036011;57;1142559;-88
2021/01/01 17:43:53;;;;;;;247.37;98.07;;;;;;;-0.44;83.45;100130.20;5011942;57;1142413;-88
2021/01/01 17:48:59;;;;;;;123.83;47.10;;;;;;;-0.42;83.56;100142.23;5103009;56;1142496;-88
2021/01/01 17:54:05;;;;;;;169.93;65.50;;;;;;;-0.45;83.34;100148.84;5052017;57;1142385;-88
2021/01/01 17:59:10;;;;;;;174.50;68.37;;;;;;;-0.48;83.55;100140.34;5063590;56;1142984;-88
2021/01/01 18:04:16;;;;;;;152.93;61.40;;;;;;;-0.46;83.49;100147.15;4993495;57;1142704;-88
2021/01/01 18:09:21;;;;;;;147.03;59.13;;;;;;;-0.46;83.53;100155.42;5076641;56;1142545;-88
2021/01/01 18:14:27;;;;;;;126.80;53.30;;;;;;;-0.42;83.57;100155.22;5016179;57;1142484;-88
2021/01/01 18:19:34;;;;;;;129.50;54.40;;;;;;;-0.46;83.43;100161.92;5001927;57;1142894;-90
2021/01/01 18:24:40;;;;;;;154.67;63.03;;;;;;;-0.45;83.45;100159.69;5049903;57;1142955;-92
2021/01/01 18:29:49;;;;;;;209.43;82.23;;;;;;;-0.45;83.56;100156.63;5178663;56;1142487;-88
2021/01/01 18:35:04;;;;;;;173.27;68.73;;;;;;;-0.42;83.81;100164.31;5036516;57;1142836;-89
2021/01/01 18:40:11;;;;;;;155.00;68.17;;;;;;;-0.38;83.73;100162.45;5204682;55;1142496;-90
2021/01/01 18:45:23;;;;;;;164.80;69.70;;;;;;;-0.31;83.65;100166.97;5107736;56;1142378;-88
2021/01/01 18:50:31;;;;;;;177.70;73.47;;;;;;;-0.31;83.71;100174.32;5109450;56;1142530;-88
2021/01/01 18:55:38;;;;;;;222.42;84.80;;;;;;;-0.29;83.68;100176.83;5179166;56;1142585;-91
2021/01/01 19:00:48;;;;;;;160.70;64.80;;;;;;;-0.26;83.70;100174.97;5240695;56;1142603;-88
2021/01/01 19:06:28;;;;;;;115.70;48.40;;;;;;;-0.26;83.68;100187.11;5206283;56;1142592;-88
2021/01/01 19:11:35;;;;;;;130.57;52.37;;;;;;;-0.32;83.40;100186.91;5207055;56;1142871;-88
2021/01/01 19:16:41;;;;;;;212.97;78.30;;;;;;;-0.41;83.69;100182.05;5202669;56;1142581;-88
2021/01/01 19:21:50;;;;;;;278.30;96.30;;;;;;;-0.32;83.78;100193.41;5202601;55;1142667;-88
2021/01/01 19:26:59;;;;;;;147.80;50.07;;;;;;;-0.30;83.91;100194.17;5101124;56;1142536;-88
2021/01/01 19:32:10;;;;;;;227.77;89.23;;;;;;;-0.27;83.89;100191.46;5138606;56;1143398;-87
2021/01/01 19:38:04;;;;;;;138.60;46.60;;;;;;;-0.29;83.82;100193.72;4978378;58;1142461;-88
2021/01/01 19:43:47;;;;;;;133.63;53.40;;;;;;;-0.26;83.92;100194.91;5131482;56;1142567;-88
2021/01/01 19:49:22;;;;;;;135.90;52.90;;;;;;;-0.24;83.98;100206.09;5102374;56;1142437;-88
2021/01/01 19:54:51;;;;;;;153.62;60.20;;;;;;;-0.25;84.09;100210.89;5039828;57;1142648;-88
2021/01/01 20:00:15;;;;;;;141.00;52.80;;;;;;;-0.27;83.89;100222.64;5117006;56;1142538;-88
2021/01/01 20:05:23;;;;;;;126.82;48.40;;;;;;;-0.29;83.96;100232.70;5129783;56;1142565;-88
2021/01/01 20:10:29;;;;;;;123.93;44.80;;;;;;;-0.29;84.04;100232.25;5024092;57;1142931;-88
2021/01/01 20:15:37;;;;;;;135.97;49.42;;;;;;;-0.30;84.11;100236.20;5009374;57;1142865;-88
2021/01/01 20:20:46;;;;;;;123.82;47.48;;;;;;;-0.27;84.07;100245.19;5131156;56;1142685;-87
2021/01/01 20:26:01;;;;;;;136.90;52.00;;;;;;;-0.24;84.27;100247.67;5117718;56;1142365;-89
2021/01/01 20:31:10;;;;;;;132.90;50.83;;;;;;;-0.19;84.28;100254.41;5042531;56;1142491;-90
2021/01/01 20:36:34;;;;;;;119.37;45.60;;;;;;;-0.17;84.19;100259.55;5051728;56;1142477;-88
2021/01/01 20:41:48;;;;;;;;;;;;;;;-0.15;84.32;100266.80;5022640;57;1142972;-88
2021/01/01 20:48:08;;;;;;;125.37;45.83;;;;;;;-0.14;84.15;100264.15;5147867;55;973887;-88
2021/01/01 20:57:54;;;;;;;144.40;53.90;;;;;;;-0.09;84.29;100283.48;4986812;57;1142518;-87
2021/01/01 21:03:01;;;;;;;157.27;59.83;;;;;;;-0.07;84.12;100284.27;4983794;57;1142873;-88
2021/01/01 21:08:31;;;;;;;129.73;51.33;;;;;;;-0.04;84.27;100291.96;5006631;57;1142482;-88
2021/01/01 21:14:19;;;;;;;148.40;55.77;;;;;;;-0.06;84.26;100291.17;4986879;57;1142460;-88
2021/01/01 21:19:53;;;;;;;119.57;44.13;;;;;;;-0.08;84.17;100285.17;4987546;57;1142875;-88
2021/01/01 21:25:20;;;;;;;141.73;52.03;;;;;;;-0.08;84.28;100300.77;4856571;59;1142564;-88
2021/01/01 21:30:42;;;;;;;135.47;48.27;;;;;;;-0.06;84.32;100310.21;4870152;59;1142635;-88
2021/01/01 21:36:36;;;;;;;162.97;62.97;;;;;;;-0.06;84.37;100303.72;4724353;60;1142655;-88
2021/01/01 21:42:21;;;;;;;143.45;53.05;;;;;;;-0.05;84.37;100309.77;4723088;60;1142914;-88
2021/01/01 21:48:12;;;;;;;149.87;54.20;;;;;;;0.00;84.35;100313.05;4788157;59;1143396;-88
2021/01/01 21:53:18;;;;;;;117.13;45.77;;;;;;;-0.01;84.39;100310.90;4806655;59;1141044;-88
2021/01/01 21:58:23;;;;;;;129.90;44.83;;;;;;;-0.02;84.41;100313.55;4800928;57;1142556;-88
2021/01/01 22:03:31;;;;;;;81.27;28.60;;;;;;;0.00;84.57;100307.36;4833087;59;1142722;-88
2021/01/01 22:08:37;;;;;;;136.73;51.37;;;;;;;0.02;84.73;100317.71;4852497;60;1138420;-90
2021/01/01 22:13:43;;;;;;;143.72;54.05;;;;;;;0.03;84.54;100320.70;4957888;57;1140466;-90
2021/01/01 22:18:51;;;;;;;132.93;51.87;;;;;;;0.06;84.51;100327.09;4968350;57;1140757;-86
2021/01/01 22:23:57;;;;;;;141.93;54.13;;;;;;;0.10;84.62;100331.28;5081269;56;1140465;-87
2021/01/01 22:29:03;;;;;;;137.37;48.43;;;;;;;0.15;84.67;100332.42;5078022;55;1140460;-87
2021/01/01 22:34:08;;;;;;;124.80;46.67;;;;;;;0.20;84.47;100344.77;4990122;57;1140902;-87
2021/01/01 22:39:17;;;;;;;135.72;48.02;;;;;;;0.15;84.51;100346.27;4993634;57;1140402;-87
2021/01/01 22:44:23;;;;;;;116.50;42.93;;;;;;;0.18;84.50;100350.48;4995291;57;1140518;-87
2021/01/01 22:49:29;;;;;;;111.67;44.23;;;;;;;0.21;84.50;100355.58;5000799;57;1140851;-87
2021/01/01 22:54:34;;;;;;;142.85;53.55;;;;;;;0.21;84.55;100351.67;4995149;58;1140539;-87
2021/01/01 22:59:42;;;;;;;133.57;50.63;;;;;;;0.20;84.55;100349.52;4993313;57;1140804;-87
2021/01/01 23:04:49;;;;;;;142.10;51.07;;;;;;;0.27;84.57;100352.75;5090476;57;1138668;-87
2021/01/01 23:09:55;;;;;;;139.60;51.43;;;;;;;0.32;84.68;100353.41;5022665;58;1140612;-87
2021/01/01 23:15:02;;;;;;;143.63;51.20;;;;;;;0.37;84.73;100361.04;5001887;57;1140376;-88
2021/01/01 23:20:12;;;;;;;119.53;44.43;;;;;;;0.40;84.44;100354.42;4995266;57;1140987;-87
2021/01/01 23:25:28;;;;;;;144.90;52.60;;;;;;;0.45;84.69;100372.02;4991043;57;1140663;-87
2021/01/01 23:30:36;;;;;;;139.97;49.70;;;;;;;0.43;84.56;100369.92;5063685;58;1140746;-87
2021/01/01 23:35:49;;;;;;;133.67;52.08;;;;;;;0.47;84.52;100368.87;5101168;57;1140785;-88
2021/01/01 23:41:01;;;;;;;133.90;50.83;;;;;;;0.49;84.54;100363.16;5049125;57;1140412;-87
2021/01/01 23:46:34;;;;;;;105.83;38.63;;;;;;;0.46;84.65;100365.91;4958136;57;1140566;-87
2021/01/01 23:51:43;;;;;;;131.70;49.93;;;;;;;0.44;84.10;100398.94;4982048;58;1140350;-87
2021/01/01 23:56:50;;;;;;;139.80;53.90;;;;;;;0.28;84.29;100396.06;4999607;57;1140306;-87
